createdAt,value
2023-02-02T00:01:28.940Z,0.30
2023-02-02T00:03:57.828Z,0.30
2023-02-02T00:06:29.813Z,0.40
2023-02-02T00:08:59.297Z,0.50
2023-02-02T00:11:28.414Z,0.30
2023-02-02T00:13:56.885Z,0.50
2023-02-02T00:16:43.181Z,0.40
2023-02-02T00:19:14.215Z,0.33
2023-02-02T00:21:44.584Z,0.20
2023-02-02T00:24:14.939Z,0.50
2023-02-02T00:26:45.407Z,0.30
2023-02-02T00:29:17.859Z,0.30
2023-02-02T00:31:47.040Z,0.30
2023-02-02T00:34:16.431Z,0.60
2023-02-02T00:36:47.136Z,0.73
2023-02-02T00:39:18.547Z,0.30
2023-02-02T00:41:47.504Z,0.30
2023-02-02T00:44:33.435Z,0.30
2023-02-02T00:47:01.926Z,0.30
2023-02-02T00:49:30.534Z,0.47
2023-02-02T00:52:00.955Z,0.30
2023-02-02T00:54:29.857Z,0.30
2023-02-02T00:56:58.388Z,0.70
2023-02-02T00:59:26.848Z,0.40
2023-02-02T01:01:55.408Z,0.30
2023-02-02T01:04:23.906Z,0.67
2023-02-02T01:06:52.556Z,0.70
2023-02-02T01:09:22.637Z,0.30
2023-02-02T01:11:51.204Z,0.30
2023-02-02T01:14:19.645Z,0.30
2023-02-02T01:16:48.261Z,0.47
2023-02-02T01:19:17.615Z,0.23
2023-02-02T01:21:46.109Z,0.30
2023-02-02T01:24:14.558Z,0.30
2023-02-02T01:26:44.547Z,0.53
2023-02-02T01:29:13.162Z,0.37
2023-02-02T01:31:42.252Z,0.77
2023-02-02T01:34:10.758Z,0.47
2023-02-02T01:36:39.264Z,0.20
2023-02-02T01:39:07.763Z,0.43
2023-02-02T01:41:36.616Z,0.23
2023-02-02T01:44:08.030Z,0.57
2023-02-02T01:46:38.081Z,0.87
2023-02-02T01:49:10.341Z,0.30
2023-02-02T01:51:43.760Z,0.30
2023-02-02T01:54:17.150Z,0.30
2023-02-02T01:56:50.278Z,0.50
2023-02-02T01:59:20.632Z,0.60
2023-02-02T02:01:51.098Z,0.30
2023-02-02T02:04:20.045Z,0.20
2023-02-02T02:06:51.194Z,0.30
2023-02-02T02:09:19.641Z,0.60
2023-02-02T02:11:49.149Z,0.30
2023-02-02T02:14:37.464Z,0.43
2023-02-02T02:17:24.801Z,0.50
2023-02-02T02:20:54.441Z,0.40
2023-02-02T02:24:28.135Z,0.83
2023-02-02T02:27:25.289Z,0.30
2023-02-02T02:30:25.010Z,0.23
2023-02-02T02:33:03.232Z,0.43
2023-02-02T02:35:37.468Z,0.70
2023-02-02T02:38:11.576Z,0.30
2023-02-02T02:40:44.270Z,0.20
2023-02-02T02:43:17.483Z,0.20
2023-02-02T02:45:46.154Z,0.20
2023-02-02T02:48:16.478Z,0.30
2023-02-02T02:50:44.940Z,0.43
2023-02-02T02:53:19.538Z,0.30
2023-02-02T02:55:55.327Z,0.23
2023-02-02T02:58:33.186Z,0.20
2023-02-02T03:01:10.994Z,0.20
2023-02-02T03:04:03.236Z,0.30
2023-02-02T03:06:39.103Z,0.20
2023-02-02T03:09:11.894Z,1.97
2023-02-02T03:11:41.197Z,0.97
2023-02-02T03:14:10.061Z,0.30
2023-02-02T03:16:38.827Z,0.60
2023-02-02T03:19:09.477Z,0.20
2023-02-02T03:21:38.031Z,1.00
2023-02-02T03:24:07.097Z,1.43
2023-02-02T03:26:36.204Z,0.60
2023-02-02T03:29:05.581Z,0.30
2023-02-02T03:31:34.127Z,0.47
2023-02-02T03:34:02.637Z,0.40
2023-02-02T03:36:32.499Z,0.30
2023-02-02T03:39:00.969Z,0.30
2023-02-02T03:41:29.397Z,0.30
2023-02-02T03:43:57.938Z,0.20
2023-02-02T03:46:26.441Z,1.13
2023-02-02T03:48:54.975Z,1.03
2023-02-02T03:51:23.546Z,0.33
2023-02-02T03:53:53.428Z,0.37
2023-02-02T03:56:21.964Z,0.50
2023-02-02T03:58:50.437Z,0.30
2023-02-02T04:01:18.931Z,0.50
2023-02-02T04:03:47.434Z,0.30
2023-02-02T04:06:15.944Z,0.30
2023-02-02T04:08:44.451Z,0.30
2023-02-02T04:11:14.482Z,0.20
2023-02-02T04:13:43.381Z,0.50
2023-02-02T04:16:12.448Z,0.20
2023-02-02T04:18:41.017Z,0.67
2023-02-02T04:21:09.985Z,0.30
2023-02-02T04:23:38.479Z,0.20
2023-02-02T04:26:07.232Z,0.20
2023-02-02T04:28:37.149Z,0.40
2023-02-02T04:31:05.853Z,0.20
2023-02-02T04:33:36.328Z,0.43
2023-02-02T04:36:05.391Z,0.30
2023-02-02T04:38:33.864Z,0.53
2023-02-02T04:41:08.798Z,0.40
2023-02-02T04:43:39.794Z,0.27
2023-02-02T04:46:08.336Z,1.17
2023-02-02T04:48:37.261Z,0.50
2023-02-02T04:51:07.694Z,0.30
2023-02-02T04:53:36.375Z,0.30
2023-02-02T04:56:08.471Z,0.30
2023-02-02T04:58:38.703Z,0.30
2023-02-02T05:01:11.635Z,0.30
2023-02-02T05:03:40.789Z,0.43
2023-02-02T05:06:09.592Z,0.60
2023-02-02T05:08:38.469Z,0.40
2023-02-02T05:11:11.247Z,0.30
2023-02-02T05:13:41.503Z,1.13
2023-02-02T05:16:10.071Z,0.53
2023-02-02T05:18:38.547Z,0.20
2023-02-02T05:21:07.557Z,0.30
2023-02-02T05:23:36.146Z,0.37
2023-02-02T05:26:04.691Z,0.30
2023-02-02T05:28:35.699Z,0.43
2023-02-02T05:31:08.861Z,0.63
2023-02-02T05:33:37.378Z,0.60
2023-02-02T05:36:06.481Z,0.37
2023-02-02T05:38:35.353Z,0.40
2023-02-02T05:41:04.462Z,0.30
2023-02-02T05:43:34.192Z,0.30
2023-02-02T05:46:03.032Z,0.30
2023-02-02T05:48:33.579Z,0.30
2023-02-02T05:51:06.629Z,0.30
2023-02-02T05:53:35.222Z,0.53
2023-02-02T05:56:03.716Z,0.30
2023-02-02T05:58:33.392Z,0.30
2023-02-02T06:01:01.839Z,0.40
2023-02-02T06:03:30.326Z,0.33
2023-02-02T06:06:00.701Z,0.30
2023-02-02T06:08:29.237Z,0.30
2023-02-02T06:10:57.749Z,0.30
2023-02-02T06:13:26.258Z,0.40
2023-02-02T06:15:54.778Z,0.30
2023-02-02T06:18:23.288Z,0.30
2023-02-02T06:20:59.649Z,0.30
2023-02-02T06:23:28.967Z,0.60
2023-02-02T06:25:57.414Z,0.23
2023-02-02T06:28:25.952Z,0.27
2023-02-02T06:30:54.523Z,0.30
2023-02-02T06:33:23.076Z,0.20
2023-02-02T06:35:51.578Z,0.30
2023-02-02T06:38:21.366Z,0.30
2023-02-02T06:40:49.874Z,0.30
2023-02-02T06:43:19.407Z,0.20
2023-02-02T06:45:47.873Z,0.30
2023-02-02T06:48:16.389Z,0.30
2023-02-02T06:50:44.907Z,0.40
2023-02-02T06:53:13.375Z,0.63
2023-02-02T06:55:43.308Z,0.30
2023-02-02T06:58:11.756Z,0.50
2023-02-02T07:00:40.295Z,0.40
2023-02-02T07:03:08.727Z,1.23
2023-02-02T07:05:37.202Z,0.40
2023-02-02T07:08:06.115Z,0.53
2023-02-02T07:11:09.440Z,0.30
2023-02-02T07:13:24.428Z,0.83
2023-02-02T07:15:54.553Z,0.30
2023-02-02T07:18:23.111Z,0.40
2023-02-02T07:20:51.669Z,0.50
2023-02-02T07:23:20.140Z,0.50
2023-02-02T07:25:48.867Z,0.30
2023-02-02T07:28:17.327Z,0.60
2023-02-02T07:30:47.270Z,1.37
2023-02-02T07:33:15.779Z,0.30
2023-02-02T07:35:44.221Z,0.50
2023-02-02T07:38:12.680Z,0.50
2023-02-02T07:40:41.152Z,0.30
2023-02-02T07:43:10.090Z,0.67
2023-02-02T07:45:38.844Z,0.40
2023-02-02T07:48:09.053Z,0.40
2023-02-02T07:50:37.515Z,0.30
2023-02-02T07:53:06.145Z,0.30
2023-02-02T07:55:34.694Z,0.30
2023-02-02T07:58:03.275Z,0.20
2023-02-02T08:00:31.795Z,0.30
2023-02-02T08:03:00.404Z,0.40
2023-02-02T08:05:30.277Z,0.73
2023-02-02T08:07:58.777Z,0.20
2023-02-02T08:10:27.285Z,0.40
2023-02-02T08:12:55.795Z,0.20
2023-02-02T08:15:24.620Z,0.90
2023-02-02T08:17:53.374Z,0.30
2023-02-02T08:20:21.864Z,0.50
2023-02-02T08:22:51.641Z,0.30
2023-02-02T08:25:20.482Z,0.50
2023-02-02T08:27:48.961Z,0.20
2023-02-02T08:30:17.656Z,0.30
2023-02-02T08:32:46.157Z,0.50
2023-02-02T08:35:14.686Z,0.30
2023-02-02T08:37:43.156Z,0.87
2023-02-02T08:40:14.325Z,0.53
2023-02-02T08:42:43.396Z,0.50
2023-02-02T08:46:01.092Z,0.30
2023-02-02T08:48:11.295Z,0.30
2023-02-02T08:50:40.898Z,0.23
2023-02-02T08:53:09.324Z,0.20
2023-02-02T08:55:39.098Z,0.23
2023-02-02T08:58:07.572Z,0.20
2023-02-02T09:00:36.022Z,0.20
2023-02-02T09:03:04.559Z,0.40
2023-02-02T09:05:33.211Z,0.40
2023-02-02T09:08:01.637Z,0.30
2023-02-02T09:10:31.913Z,1.43
2023-02-02T09:13:01.734Z,0.30
2023-02-02T09:15:30.853Z,0.50
2023-02-02T09:17:59.429Z,0.57
2023-02-02T09:20:28.153Z,0.80
2023-02-02T09:22:58.002Z,0.40
2023-02-02T09:25:27.582Z,0.20
2023-02-02T09:27:56.271Z,0.30
2023-02-02T09:30:26.191Z,0.60
2023-02-02T09:32:54.624Z,0.30
2023-02-02T09:35:23.724Z,1.23
2023-02-02T09:37:52.320Z,0.20
2023-02-02T09:40:21.535Z,0.60
2023-02-02T09:43:02.874Z,0.20
2023-02-02T09:45:40.220Z,0.63
2023-02-02T09:48:21.823Z,0.30
2023-02-02T09:50:54.599Z,0.20
2023-02-02T09:53:31.608Z,0.60
2023-02-02T09:56:05.020Z,0.70
2023-02-02T09:58:37.574Z,0.70
2023-02-02T10:01:13.620Z,0.37
2023-02-02T10:03:49.849Z,0.27
2023-02-02T10:06:29.484Z,0.30
2023-02-02T10:09:04.097Z,0.37
2023-02-02T10:11:38.308Z,0.20
2023-02-02T10:14:16.760Z,0.47
2023-02-02T10:16:50.295Z,0.40
2023-02-02T10:19:18.897Z,0.47
2023-02-02T10:21:55.380Z,0.40
2023-02-02T10:24:26.014Z,0.40
2023-02-02T10:26:57.300Z,0.20
2023-02-02T10:29:48.977Z,0.30
2023-02-02T10:32:24.971Z,0.63
2023-02-02T10:35:13.814Z,0.37
2023-02-02T10:37:50.837Z,0.20
2023-02-02T10:40:35.932Z,0.63
2023-02-02T10:43:44.516Z,0.20
2023-02-02T10:46:17.115Z,0.23
2023-02-02T10:48:49.223Z,0.23
2023-02-02T10:51:23.231Z,0.30
2023-02-02T10:53:53.802Z,0.50
2023-02-02T10:56:27.449Z,0.20
2023-02-02T10:59:05.645Z,0.20
2023-02-02T11:01:34.555Z,0.60
2023-02-02T11:04:21.929Z,0.30
2023-02-02T11:06:50.587Z,0.40
2023-02-02T11:09:22.087Z,0.30
2023-02-02T11:11:55.457Z,0.20
2023-02-02T11:14:33.695Z,0.20
2023-02-02T11:17:06.535Z,0.20
2023-02-02T11:19:39.318Z,0.30
2023-02-02T11:22:25.344Z,0.20
2023-02-02T11:24:56.520Z,0.30
2023-02-02T11:27:28.611Z,0.57
2023-02-02T11:29:59.180Z,0.20
2023-02-02T11:32:30.596Z,0.27
2023-02-02T11:35:21.483Z,0.30
2023-02-02T11:38:08.551Z,0.20
2023-02-02T11:40:39.563Z,0.20
2023-02-02T11:43:18.617Z,0.30
2023-02-02T11:45:54.279Z,0.50
2023-02-02T11:48:25.683Z,0.63
2023-02-02T11:50:57.650Z,0.20
2023-02-02T11:53:29.109Z,0.20
2023-02-02T11:56:00.699Z,0.20
2023-02-02T11:58:43.250Z,0.30
2023-02-02T12:01:24.193Z,0.20
2023-02-02T12:03:53.472Z,0.30
2023-02-02T12:06:24.821Z,0.43
2023-02-02T12:08:58.010Z,0.30
2023-02-02T12:11:44.347Z,0.20
2023-02-02T12:14:40.026Z,0.20
2023-02-02T12:17:19.292Z,0.30
2023-02-02T12:20:02.572Z,0.27
2023-02-02T12:22:44.783Z,0.33
2023-02-02T12:25:51.560Z,0.30
2023-02-02T12:28:38.914Z,0.30
2023-02-02T12:31:16.393Z,0.43
2023-02-02T12:33:54.116Z,0.30
2023-02-02T12:36:35.267Z,0.30
2023-02-02T12:39:21.164Z,0.30
2023-02-02T12:42:22.549Z,0.23
2023-02-02T12:45:24.092Z,0.30
2023-02-02T12:48:06.102Z,0.30
2023-02-02T12:50:44.341Z,0.67
2023-02-02T12:53:27.559Z,0.30
2023-02-02T12:56:10.256Z,0.60
2023-02-02T12:58:46.166Z,0.30
2023-02-02T13:01:49.730Z,0.20
2023-02-02T13:04:38.356Z,0.30
2023-02-02T13:07:32.059Z,0.30
2023-02-02T13:10:18.302Z,0.20
2023-02-02T13:12:53.491Z,1.13
2023-02-02T13:15:24.317Z,0.30
2023-02-02T13:17:56.567Z,0.50
2023-02-02T13:20:32.855Z,0.40
2023-02-02T13:23:06.234Z,0.20
2023-02-02T13:25:41.745Z,0.80
2023-02-02T13:28:22.223Z,0.30
2023-02-02T13:30:53.204Z,0.73
2023-02-02T13:33:27.126Z,0.50
2023-02-02T13:35:58.537Z,0.20
2023-02-02T13:38:30.210Z,0.20
2023-02-02T13:41:01.299Z,0.37
2023-02-02T13:43:39.622Z,0.50
2023-02-02T13:46:24.016Z,0.30
2023-02-02T13:49:01.798Z,0.47
2023-02-02T13:51:49.685Z,0.20
2023-02-02T13:54:59.883Z,0.23
2023-02-02T13:57:53.214Z,0.20
2023-02-02T14:00:26.834Z,0.20
2023-02-02T14:02:57.470Z,0.97
2023-02-02T14:05:29.229Z,0.40
2023-02-02T14:08:03.206Z,0.30
2023-02-02T14:10:35.109Z,0.20
2023-02-02T14:13:30.730Z,0.50
2023-02-02T14:16:02.868Z,0.60
2023-02-02T14:18:56.517Z,0.20
2023-02-02T14:22:05.431Z,0.20
2023-02-02T14:24:46.819Z,0.20
2023-02-02T14:27:42.369Z,0.30
2023-02-02T14:30:22.024Z,0.20
2023-02-02T14:32:51.941Z,0.20
2023-02-02T14:36:01.474Z,0.20
2023-02-02T14:39:08.548Z,0.60
2023-02-02T14:42:35.553Z,0.20
2023-02-02T14:45:16.348Z,0.20
2023-02-02T14:47:51.961Z,0.30
2023-02-02T14:50:26.658Z,0.20
2023-02-02T14:53:01.288Z,0.20
2023-02-02T14:55:30.916Z,0.40
2023-02-02T14:58:01.936Z,0.20
2023-02-02T15:00:33.487Z,0.30
2023-02-02T15:03:38.605Z,0.20
2023-02-02T15:06:14.827Z,0.30
2023-02-02T15:08:43.323Z,0.20
2023-02-02T15:11:30.230Z,0.30
2023-02-02T15:14:11.125Z,0.30
2023-02-02T15:16:41.187Z,0.20
2023-02-02T15:19:21.843Z,0.27
2023-02-02T15:21:53.247Z,0.30
2023-02-02T15:24:27.011Z,0.30
2023-02-02T15:26:58.305Z,0.33
2023-02-02T15:29:41.493Z,0.30
2023-02-02T15:32:16.356Z,0.40
2023-02-02T15:34:49.820Z,0.30
2023-02-02T15:37:23.849Z,0.40
2023-02-02T15:39:56.180Z,0.37
2023-02-02T15:42:53.802Z,0.37
2023-02-02T15:45:43.354Z,0.37
2023-02-02T15:48:24.061Z,0.40
2023-02-02T15:50:58.456Z,0.33
2023-02-02T15:53:29.528Z,0.40
2023-02-02T15:55:59.223Z,0.37
2023-02-02T15:58:31.249Z,0.30
2023-02-02T16:01:17.646Z,0.40
2023-02-02T16:03:52.169Z,0.30
2023-02-02T16:06:23.035Z,0.30
2023-02-02T16:08:51.860Z,0.37
2023-02-02T16:11:23.320Z,0.40
2023-02-02T16:14:01.488Z,0.47
2023-02-02T16:16:32.045Z,0.40
2023-02-02T16:19:14.241Z,0.97
2023-02-02T16:21:49.828Z,0.40
2023-02-02T16:24:22.436Z,0.50
2023-02-02T16:26:52.890Z,0.40
2023-02-02T16:29:22.802Z,0.43
2023-02-02T16:31:52.135Z,0.40
2023-02-02T16:34:41.951Z,0.30
2023-02-02T16:37:16.904Z,0.60
2023-02-02T16:39:45.673Z,0.30
2023-02-02T16:42:26.336Z,0.60
2023-02-02T16:44:55.571Z,0.50
2023-02-02T16:47:38.912Z,0.53
2023-02-02T16:50:29.640Z,0.40
2023-02-02T16:53:03.163Z,0.50
2023-02-02T16:55:49.131Z,0.90
2023-02-02T16:58:22.473Z,1.03
2023-02-02T17:01:19.384Z,0.97
2023-02-02T17:03:52.311Z,2.00
2023-02-02T17:06:41.706Z,0.73
2023-02-02T17:09:33.134Z,1.40
2023-02-02T17:12:09.263Z,4.57
2023-02-02T17:14:53.397Z,4.53
2023-02-02T17:17:22.584Z,2.30
2023-02-02T17:19:51.212Z,2.03
2023-02-02T17:22:22.124Z,3.40
2023-02-02T17:24:53.574Z,4.93
2023-02-02T17:27:27.919Z,4.73
2023-02-02T17:29:57.819Z,3.80
2023-02-02T17:32:26.863Z,3.10
2023-02-02T17:34:55.416Z,1.80
2023-02-02T17:37:23.961Z,1.60
2023-02-02T17:39:53.996Z,2.33
2023-02-02T17:42:26.026Z,0.97
2023-02-02T17:44:54.559Z,2.00
2023-02-02T17:47:22.999Z,0.97
2023-02-02T17:49:51.470Z,1.23
2023-02-02T17:52:19.976Z,0.73
2023-02-02T17:54:48.549Z,1.00
2023-02-02T17:57:18.381Z,1.00
2023-02-02T17:59:46.899Z,0.60
2023-02-02T18:02:17.508Z,0.60
2023-02-02T18:04:46.140Z,0.67
2023-02-02T18:07:14.633Z,0.83
2023-02-02T18:09:43.092Z,0.83
2023-02-02T18:12:11.611Z,0.93
2023-02-02T18:14:41.654Z,2.23
2023-02-02T18:17:10.281Z,1.63
2023-02-02T18:19:39.429Z,0.77
2023-02-02T18:22:07.933Z,1.70
2023-02-02T18:24:36.877Z,1.90
2023-02-02T18:27:05.426Z,1.10
2023-02-02T18:29:33.996Z,1.23
2023-02-02T18:32:04.157Z,0.70
2023-02-02T18:34:33.516Z,1.00
2023-02-02T18:37:02.647Z,0.70
2023-02-02T18:39:31.418Z,0.70
2023-02-02T18:41:59.990Z,0.67
2023-02-02T18:44:28.459Z,0.83
2023-02-02T18:46:57.008Z,1.00
2023-02-02T18:49:27.021Z,1.30
2023-02-02T18:51:55.473Z,0.70
2023-02-02T18:54:24.066Z,0.50
2023-02-02T18:56:52.587Z,0.70
2023-02-02T18:59:21.148Z,0.60
2023-02-02T19:01:49.723Z,0.73
2023-02-02T19:04:18.205Z,0.40
2023-02-02T19:07:05.802Z,0.60
2023-02-02T19:09:34.735Z,1.30
2023-02-02T19:12:03.547Z,0.57
2023-02-02T19:14:36.226Z,0.80
2023-02-02T19:17:17.998Z,0.43
2023-02-02T19:19:46.527Z,0.80
2023-02-02T19:22:22.569Z,0.60
2023-02-02T19:24:51.741Z,0.50
2023-02-02T19:27:21.810Z,0.60
2023-02-02T19:29:52.667Z,0.60
2023-02-02T19:32:23.433Z,0.50
2023-02-02T19:34:54.994Z,0.50
2023-02-02T19:37:28.166Z,0.50
2023-02-02T19:40:03.226Z,0.50
2023-02-02T19:42:31.769Z,0.63
2023-02-02T19:45:00.291Z,0.50
2023-02-02T19:47:33.627Z,0.50
2023-02-02T19:50:15.350Z,0.70
2023-02-02T19:52:46.240Z,1.07
2023-02-02T19:55:23.069Z,0.50
2023-02-02T19:57:53.157Z,0.83
2023-02-02T20:00:24.475Z,0.80
2023-02-02T20:03:01.480Z,0.60
2023-02-02T20:05:34.223Z,0.53
2023-02-02T20:08:16.282Z,1.13
2023-02-02T20:10:46.122Z,0.70
2023-02-02T20:13:19.511Z,0.40
2023-02-02T20:15:48.831Z,0.57
2023-02-02T20:18:21.082Z,0.60
2023-02-02T20:20:53.187Z,0.80
2023-02-02T20:23:37.445Z,0.60
2023-02-02T20:26:18.086Z,0.90
2023-02-02T20:28:47.178Z,3.77
2023-02-02T20:31:17.926Z,2.10
2023-02-02T20:33:49.190Z,1.90
2023-02-02T20:36:35.591Z,2.40
2023-02-02T20:39:33.608Z,2.43
2023-02-02T20:42:03.164Z,0.50
2023-02-02T20:44:33.475Z,1.50
2023-02-02T20:47:03.352Z,1.13
2023-02-02T20:49:32.194Z,1.00
2023-02-02T20:52:03.647Z,1.47
2023-02-02T20:54:33.954Z,0.70
2023-02-02T20:57:03.153Z,1.43
2023-02-02T20:59:31.915Z,0.80
2023-02-02T21:02:01.071Z,0.90
2023-02-02T21:04:29.667Z,2.00
2023-02-02T21:06:59.363Z,1.60
2023-02-02T21:09:28.406Z,1.07
2023-02-02T21:11:58.196Z,0.90
2023-02-02T21:14:26.658Z,1.40
2023-02-02T21:17:05.417Z,1.27
2023-02-02T21:19:41.243Z,1.43
2023-02-02T21:22:09.787Z,0.80
2023-02-02T21:24:38.232Z,1.53
2023-02-02T21:27:08.895Z,0.50
2023-02-02T21:29:37.873Z,0.77
2023-02-02T21:32:06.863Z,0.67
2023-02-02T21:34:36.910Z,1.00
2023-02-02T21:37:12.752Z,0.60
2023-02-02T21:39:47.962Z,1.00
2023-02-02T21:42:20.317Z,0.50
2023-02-02T21:44:53.638Z,0.60
2023-02-02T21:47:29.380Z,0.70
2023-02-02T21:50:00.215Z,0.73
2023-02-02T21:52:34.383Z,0.80
2023-02-02T21:55:25.356Z,1.13
2023-02-02T21:57:57.481Z,0.60
2023-02-02T22:00:30.843Z,0.60
2023-02-02T22:03:00.239Z,0.77
2023-02-02T22:05:36.320Z,0.60
2023-02-02T22:08:21.699Z,0.60
2023-02-02T22:10:51.231Z,0.67
2023-02-02T22:13:23.889Z,1.00
2023-02-02T22:15:53.911Z,0.63
2023-02-02T22:18:24.330Z,0.60
2023-02-02T22:20:56.345Z,0.70
2023-02-02T22:23:27.589Z,1.50
2023-02-02T22:25:59.004Z,0.60
2023-02-02T22:28:33.448Z,0.77
2023-02-02T22:31:02.090Z,0.50
2023-02-02T22:33:30.721Z,0.50
2023-02-02T22:35:59.291Z,0.60
2023-02-02T22:38:27.867Z,0.70
2023-02-02T22:40:56.385Z,1.73
2023-02-02T22:43:24.854Z,0.50
2023-02-02T22:45:54.804Z,0.70
2023-02-02T22:48:23.304Z,0.50
2023-02-02T22:50:51.763Z,0.50
2023-02-02T22:53:20.228Z,0.57
2023-02-02T22:55:48.986Z,0.97
2023-02-02T22:58:17.413Z,0.70
2023-02-02T23:00:45.845Z,0.70
2023-02-02T23:03:15.645Z,0.70
2023-02-02T23:05:44.115Z,0.60
2023-02-02T23:08:12.590Z,0.43
2023-02-02T23:10:41.042Z,0.50
2023-02-02T23:13:09.628Z,0.50
2023-02-02T23:15:38.125Z,0.57
2023-02-02T23:18:06.781Z,0.80
2023-02-02T23:20:36.621Z,0.80
2023-02-02T23:23:05.091Z,1.17
2023-02-02T23:25:33.538Z,0.80
2023-02-02T23:28:02.020Z,1.23
2023-02-02T23:30:30.565Z,0.63
2023-02-02T23:32:59.059Z,0.50
2023-02-02T23:35:27.509Z,0.50
2023-02-02T23:37:57.386Z,0.50
2023-02-02T23:40:26.066Z,0.50
2023-02-02T23:42:54.830Z,0.87
2023-02-02T23:45:23.315Z,0.60
2023-02-02T23:47:51.790Z,0.37
2023-02-02T23:50:20.409Z,0.60
2023-02-02T23:52:48.993Z,0.60
2023-02-02T23:55:19.524Z,0.77
2023-02-02T23:57:48.206Z,0.60
